sensor_id;sensor_type;location;lat;lon;timestamp;pressure;altitude;pressure_sealevel;temperature
82400;BMP280;72039;48.812;8.198;2024-02-26T00:01:57;98497.59;;;11.45
82400;BMP280;72039;48.812;8.198;2024-02-26T00:04:25;98499.63;;;11.42
82400;BMP280;72039;48.812;8.198;2024-02-26T00:06:50;98482.94;;;11.40
82400;BMP280;72039;48.812;8.198;2024-02-26T00:09:16;98489.13;;;11.37
82400;BMP280;72039;48.812;8.198;2024-02-26T00:11:42;98484.88;;;11.31
82400;BMP280;72039;48.812;8.198;2024-02-26T00:14:07;98479.91;;;11.26
82400;BMP280;72039;48.812;8.198;2024-02-26T00:16:32;98484.69;;;11.21
82400;BMP280;72039;48.812;8.198;2024-02-26T00:18:59;98477.03;;;11.20
82400;BMP280;72039;48.812;8.198;2024-02-26T00:21:28;98471.50;;;11.20
82400;BMP280;72039;48.812;8.198;2024-02-26T00:23:53;98471.44;;;11.18
82400;BMP280;72039;48.812;8.198;2024-02-26T00:26:21;98467.97;;;11.17
82400;BMP280;72039;48.812;8.198;2024-02-26T00:28:47;98475.59;;;11.15
82400;BMP280;72039;48.812;8.198;2024-02-26T00:31:12;98463.72;;;11.12
82400;BMP280;72039;48.812;8.198;2024-02-26T00:33:44;98471.31;;;11.09
82400;BMP280;72039;48.812;8.198;2024-02-26T00:36:12;98468.56;;;11.11
82400;BMP280;72039;48.812;8.198;2024-02-26T00:38:40;98467.91;;;11.13
82400;BMP280;72039;48.812;8.198;2024-02-26T00:41:06;98492.19;;;11.13
82400;BMP280;72039;48.812;8.198;2024-02-26T00:43:34;98482.50;;;11.14
82400;BMP280;72039;48.812;8.198;2024-02-26T00:46:00;98482.53;;;11.16
82400;BMP280;72039;48.812;8.198;2024-02-26T00:48:30;98478.38;;;11.15
82400;BMP280;72039;48.812;8.198;2024-02-26T00:50:57;98480.34;;;11.10
82400;BMP280;72039;48.812;8.198;2024-02-26T00:53:30;98474.03;;;11.05
82400;BMP280;72039;48.812;8.198;2024-02-26T00:55:58;98475.34;;;11.02
82400;BMP280;72039;48.812;8.198;2024-02-26T00:58:24;98475.97;;;10.97
82400;BMP280;72039;48.812;8.198;2024-02-26T01:00:50;98470.91;;;10.85
82400;BMP280;72039;48.812;8.198;2024-02-26T01:03:15;98464.59;;;10.80
82400;BMP280;72039;48.812;8.198;2024-02-26T01:05:42;98462.38;;;10.75
82400;BMP280;72039;48.812;8.198;2024-02-26T01:08:07;98465.13;;;10.73
82400;BMP280;72039;48.812;8.198;2024-02-26T01:10:33;98460.94;;;10.72
82400;BMP280;72039;48.812;8.198;2024-02-26T01:13:01;98462.28;;;10.69
82400;BMP280;72039;48.812;8.198;2024-02-26T01:15:27;98473.25;;;10.62
82400;BMP280;72039;48.812;8.198;2024-02-26T01:17:55;98489.84;;;10.60
82400;BMP280;72039;48.812;8.198;2024-02-26T01:20:21;98488.47;;;10.59
82400;BMP280;72039;48.812;8.198;2024-02-26T01:22:46;98487.03;;;10.58
82400;BMP280;72039;48.812;8.198;2024-02-26T01:25:12;98502.28;;;10.57
82400;BMP280;72039;48.812;8.198;2024-02-26T01:27:45;98498.03;;;10.54
82400;BMP280;72039;48.812;8.198;2024-02-26T01:30:18;98510.50;;;10.51
82400;BMP280;72039;48.812;8.198;2024-02-26T01:32:44;98532.53;;;10.45
82400;BMP280;72039;48.812;8.198;2024-02-26T01:35:12;98528.28;;;10.40
82400;BMP280;72039;48.812;8.198;2024-02-26T01:37:38;98518.50;;;10.37
82400;BMP280;72039;48.812;8.198;2024-02-26T01:40:04;98510.06;;;10.31
82400;BMP280;72039;48.812;8.198;2024-02-26T01:42:33;98519.56;;;10.22
82400;BMP280;72039;48.812;8.198;2024-02-26T01:45:01;98509.72;;;10.14
82400;BMP280;72039;48.812;8.198;2024-02-26T01:47:27;98508.13;;;10.05
82400;BMP280;72039;48.812;8.198;2024-02-26T01:52:23;98503.53;;;9.86
82400;BMP280;72039;48.812;8.198;2024-02-26T01:54:49;98508.31;;;9.81
82400;BMP280;72039;48.812;8.198;2024-02-26T01:57:16;98501.94;;;9.77
82400;BMP280;72039;48.812;8.198;2024-02-26T01:59:42;98505.38;;;9.75
82400;BMP280;72039;48.812;8.198;2024-02-26T02:02:08;98494.19;;;9.71
82400;BMP280;72039;48.812;8.198;2024-02-26T02:04:38;98498.34;;;9.70
82400;BMP280;72039;48.812;8.198;2024-02-26T02:07:04;98489.97;;;9.68
82400;BMP280;72039;48.812;8.198;2024-02-26T02:09:30;98487.13;;;9.64
82400;BMP280;72039;48.812;8.198;2024-02-26T02:11:55;98480.13;;;9.61
82400;BMP280;72039;48.812;8.198;2024-02-26T02:14:21;98477.91;;;9.55
82400;BMP280;72039;48.812;8.198;2024-02-26T02:16:47;98477.09;;;9.51
82400;BMP280;72039;48.812;8.198;2024-02-26T02:19:15;98476.31;;;9.46
82400;BMP280;72039;48.812;8.198;2024-02-26T02:21:43;98473.44;;;9.42
82400;BMP280;72039;48.812;8.198;2024-02-26T02:24:10;98469.16;;;9.37
82400;BMP280;72039;48.812;8.198;2024-02-26T02:26:38;98460.00;;;9.30
82400;BMP280;72039;48.812;8.198;2024-02-26T02:29:04;98454.34;;;9.24
82400;BMP280;72039;48.812;8.198;2024-02-26T02:31:33;98465.97;;;9.20
82400;BMP280;72039;48.812;8.198;2024-02-26T02:34:01;98458.91;;;9.13
82400;BMP280;72039;48.812;8.198;2024-02-26T02:36:29;98451.19;;;9.10
82400;BMP280;72039;48.812;8.198;2024-02-26T02:38:54;98450.50;;;9.09
82400;BMP280;72039;48.812;8.198;2024-02-26T02:41:20;98446.44;;;9.12
82400;BMP280;72039;48.812;8.198;2024-02-26T02:43:46;98445.13;;;9.15
82400;BMP280;72039;48.812;8.198;2024-02-26T02:46:13;98441.66;;;9.15
82400;BMP280;72039;48.812;8.198;2024-02-26T02:48:41;98437.53;;;9.16
82400;BMP280;72039;48.812;8.198;2024-02-26T02:51:09;98438.88;;;9.15
82400;BMP280;72039;48.812;8.198;2024-02-26T02:53:40;98442.34;;;9.15
82400;BMP280;72039;48.812;8.198;2024-02-26T02:56:08;98425.00;;;9.13
82400;BMP280;72039;48.812;8.198;2024-02-26T02:58:33;98422.41;;;9.13
82400;BMP280;72039;48.812;8.198;2024-02-26T03:01:01;98432.53;;;9.10
82400;BMP280;72039;48.812;8.198;2024-02-26T03:03:29;98420.78;;;9.10
82400;BMP280;72039;48.812;8.198;2024-02-26T03:05:56;98416.59;;;9.09
82400;BMP280;72039;48.812;8.198;2024-02-26T03:08:21;98419.31;;;9.07
82400;BMP280;72039;48.812;8.198;2024-02-26T03:10:47;98416.59;;;9.09
82400;BMP280;72039;48.812;8.198;2024-02-26T03:13:12;98415.25;;;9.10
82400;BMP280;72039;48.812;8.198;2024-02-26T03:15:40;98406.28;;;9.11
82400;BMP280;72039;48.812;8.198;2024-02-26T03:18:06;98398.03;;;9.13
82400;BMP280;72039;48.812;8.198;2024-02-26T03:20:31;98399.53;;;9.18
82400;BMP280;72039;48.812;8.198;2024-02-26T03:22:59;98394.03;;;9.20
82400;BMP280;72039;48.812;8.198;2024-02-26T03:25:27;98384.34;;;9.19
82400;BMP280;72039;48.812;8.198;2024-02-26T03:27:52;98383.63;;;9.19
82400;BMP280;72039;48.812;8.198;2024-02-26T03:30:18;98377.50;;;9.22
82400;BMP280;72039;48.812;8.198;2024-02-26T03:32:43;98377.59;;;9.27
82400;BMP280;72039;48.812;8.198;2024-02-26T03:35:09;98379.00;;;9.28
82400;BMP280;72039;48.812;8.198;2024-02-26T03:37:34;98374.84;;;9.27
82400;BMP280;72039;48.812;8.198;2024-02-26T03:39:59;98361.69;;;9.27
82400;BMP280;72039;48.812;8.198;2024-02-26T03:42:28;98365.19;;;9.30
82400;BMP280;72039;48.812;8.198;2024-02-26T03:44:53;98362.44;;;9.30
82400;BMP280;72039;48.812;8.198;2024-02-26T03:47:22;98363.81;;;9.29
82400;BMP280;72039;48.812;8.198;2024-02-26T03:49:47;98369.34;;;9.29
82400;BMP280;72039;48.812;8.198;2024-02-26T03:52:13;98365.94;;;9.30
82400;BMP280;72039;48.812;8.198;2024-02-26T03:54:40;98361.09;;;9.31
82400;BMP280;72039;48.812;8.198;2024-02-26T03:57:05;98377.69;;;9.31
82400;BMP280;72039;48.812;8.198;2024-02-26T03:59:33;98367.94;;;9.28
82400;BMP280;72039;48.812;8.198;2024-02-26T04:01:59;98384.44;;;9.23
82400;BMP280;72039;48.812;8.198;2024-02-26T04:04:29;98394.75;;;9.21
82400;BMP280;72039;48.812;8.198;2024-02-26T04:06:54;98391.94;;;9.19
82400;BMP280;72039;48.812;8.198;2024-02-26T04:09:20;98391.91;;;9.17
82400;BMP280;72039;48.812;8.198;2024-02-26T04:11:45;98384.31;;;9.17
82400;BMP280;72039;48.812;8.198;2024-02-26T04:14:11;98388.44;;;9.16
82400;BMP280;72039;48.812;8.198;2024-02-26T04:16:38;98400.78;;;9.13
82400;BMP280;72039;48.812;8.198;2024-02-26T04:19:05;98395.97;;;9.14
82400;BMP280;72039;48.812;8.198;2024-02-26T04:21:31;98389.78;;;9.15
82400;BMP280;72039;48.812;8.198;2024-02-26T04:23:57;98395.31;;;9.15
82400;BMP280;72039;48.812;8.198;2024-02-26T04:26:26;98405.69;;;9.15
82400;BMP280;72039;48.812;8.198;2024-02-26T04:28:56;98400.84;;;9.15
82400;BMP280;72039;48.812;8.198;2024-02-26T04:31:22;98400.22;;;9.17
82400;BMP280;72039;48.812;8.198;2024-02-26T04:33:52;98404.47;;;9.22
82400;BMP280;72039;48.812;8.198;2024-02-26T04:36:17;98406.59;;;9.23
82400;BMP280;72039;48.812;8.198;2024-02-26T04:38:46;98417.72;;;9.26
82400;BMP280;72039;48.812;8.198;2024-02-26T04:41:11;98414.28;;;9.27
82400;BMP280;72039;48.812;8.198;2024-02-26T04:43:40;98419.84;;;9.29
82400;BMP280;72039;48.812;8.198;2024-02-26T04:46:09;98421.91;;;9.29
82400;BMP280;72039;48.812;8.198;2024-02-26T04:48:37;98432.34;;;9.30
82400;BMP280;72039;48.812;8.198;2024-02-26T04:51:06;98432.34;;;9.30
82400;BMP280;72039;48.812;8.198;2024-02-26T04:53:35;98430.97;;;9.31
82400;BMP280;72039;48.812;8.198;2024-02-26T04:56:02;98440.66;;;9.30
82400;BMP280;72039;48.812;8.198;2024-02-26T04:58:28;98446.81;;;9.29
82400;BMP280;72039;48.812;8.198;2024-02-26T05:00:56;98453.69;;;9.26
82400;BMP280;72039;48.812;8.198;2024-02-26T05:03:24;98445.38;;;9.26
82400;BMP280;72039;48.812;8.198;2024-02-26T05:05:52;98459.22;;;9.26
82400;BMP280;72039;48.812;8.198;2024-02-26T05:08:18;98457.09;;;9.24
82400;BMP280;72039;48.812;8.198;2024-02-26T05:10:45;98455.72;;;9.25
82400;BMP280;72039;48.812;8.198;2024-02-26T05:13:13;98459.22;;;9.26
82400;BMP280;72039;48.812;8.198;2024-02-26T05:15:40;98467.47;;;9.23
82400;BMP280;72039;48.812;8.198;2024-02-26T05:18:05;98472.88;;;9.19
82400;BMP280;72039;48.812;8.198;2024-02-26T05:20:32;98472.19;;;9.19
82400;BMP280;72039;48.812;8.198;2024-02-26T05:23:02;98467.34;;;9.19
82400;BMP280;72039;48.812;8.198;2024-02-26T05:25:29;98466.66;;;9.19
82400;BMP280;72039;48.812;8.198;2024-02-26T05:27:58;98475.63;;;9.17
82400;BMP280;72039;48.812;8.198;2024-02-26T05:30:24;98468.63;;;9.14
82400;BMP280;72039;48.812;8.198;2024-02-26T05:32:51;98463.72;;;9.13
82400;BMP280;72039;48.812;8.198;2024-02-26T05:35:17;98466.44;;;9.11
82400;BMP280;72039;48.812;8.198;2024-02-26T05:37:42;98467.09;;;9.09
82400;BMP280;72039;48.812;8.198;2024-02-26T05:40:08;98469.84;;;9.07
82400;BMP280;72039;48.812;8.198;2024-02-26T05:42:34;98469.72;;;9.03
82400;BMP280;72039;48.812;8.198;2024-02-26T05:45:02;98465.47;;;9.00
82400;BMP280;72039;48.812;8.198;2024-02-26T05:47:34;98465.41;;;8.96
82400;BMP280;72039;48.812;8.198;2024-02-26T05:50:00;98461.81;;;8.91
82400;BMP280;72039;48.812;8.198;2024-02-26T05:52:27;98459.69;;;8.90
82400;BMP280;72039;48.812;8.198;2024-02-26T05:54:56;98463.84;;;8.89
82400;BMP280;72039;48.812;8.198;2024-02-26T05:57:21;98472.06;;;8.87
82400;BMP280;72039;48.812;8.198;2024-02-26T05:59:47;98477.47;;;8.83
82400;BMP280;72039;48.812;8.198;2024-02-26T06:02:15;98481.53;;;8.79
82400;BMP280;72039;48.812;8.198;2024-02-26T06:04:40;98472.47;;;8.77
82400;BMP280;72039;48.812;8.198;2024-02-26T06:07:06;98474.47;;;8.74
82400;BMP280;72039;48.812;8.198;2024-02-26T06:09:34;98480.75;;;8.75
82400;BMP280;72039;48.812;8.198;2024-02-26T06:11:59;98476.56;;;8.74
82400;BMP280;72039;48.812;8.198;2024-02-26T06:14:25;98486.22;;;8.73
82400;BMP280;72039;48.812;8.198;2024-02-26T06:16:52;98484.84;;;8.74
82400;BMP280;72039;48.812;8.198;2024-02-26T06:19:18;98477.25;;;8.74
82400;BMP280;72039;48.812;8.198;2024-02-26T06:21:47;98480.69;;;8.73
82400;BMP280;72039;48.812;8.198;2024-02-26T06:24:15;98488.22;;;8.70
82400;BMP280;72039;48.812;8.198;2024-02-26T06:29:22;98488.91;;;8.71
82400;BMP280;72039;48.812;8.198;2024-02-26T06:31:47;98490.94;;;8.68
82400;BMP280;72039;48.812;8.198;2024-02-26T06:34:13;98491.56;;;8.67
82400;BMP280;72039;48.812;8.198;2024-02-26T06:36:41;98496.34;;;8.64
82400;BMP280;72039;48.812;8.198;2024-02-26T06:39:06;98500.41;;;8.61
82400;BMP280;72039;48.812;8.198;2024-02-26T06:41:33;98496.91;;;8.61
82400;BMP280;72039;48.812;8.198;2024-02-26T06:43:58;98499.75;;;8.63
82400;BMP280;72039;48.812;8.198;2024-02-26T06:46:24;98505.34;;;8.65
82400;BMP280;72039;48.812;8.198;2024-02-26T06:48:53;98508.88;;;8.67
82400;BMP280;72039;48.812;8.198;2024-02-26T06:51:23;98506.19;;;8.71
82400;BMP280;72039;48.812;8.198;2024-02-26T06:53:49;98510.31;;;8.70
82400;BMP280;72039;48.812;8.198;2024-02-26T06:56:17;98504.78;;;8.70
82400;BMP280;72039;48.812;8.198;2024-02-26T06:58:42;98512.44;;;8.72
82400;BMP280;72039;48.812;8.198;2024-02-26T07:01:12;98514.56;;;8.73
82400;BMP280;72039;48.812;8.198;2024-02-26T07:03:39;98520.72;;;8.72
82400;BMP280;72039;48.812;8.198;2024-02-26T07:06:05;98526.19;;;8.70
82400;BMP280;72039;48.812;8.198;2024-02-26T07:08:30;98525.50;;;8.69
82400;BMP280;72039;48.812;8.198;2024-02-26T07:10:58;98524.16;;;8.70
82400;BMP280;72039;48.812;8.198;2024-02-26T07:13:25;98525.63;;;8.73
82400;BMP280;72039;48.812;8.198;2024-02-26T07:15:50;98516.09;;;8.78
82400;BMP280;72039;48.812;8.198;2024-02-26T07:18:16;98519.59;;;8.81
82400;BMP280;72039;48.812;8.198;2024-02-26T07:20:42;98521.66;;;8.81
82400;BMP280;72039;48.812;8.198;2024-02-26T07:23:07;98507.84;;;8.81
82400;BMP280;72039;48.812;8.198;2024-02-26T07:25:33;98508.53;;;8.81
82400;BMP280;72039;48.812;8.198;2024-02-26T07:28:02;98505.84;;;8.83
82400;BMP280;72039;48.812;8.198;2024-02-26T07:30:27;98509.28;;;8.84
82400;BMP280;72039;48.812;8.198;2024-02-26T07:32:52;98503.13;;;8.85
82400;BMP280;72039;48.812;8.198;2024-02-26T07:35:18;98495.53;;;8.86
82400;BMP280;72039;48.812;8.198;2024-02-26T07:37:43;98509.44;;;8.88
82400;BMP280;72039;48.812;8.198;2024-02-26T07:40:15;98512.94;;;8.90
82400;BMP280;72039;48.812;8.198;2024-02-26T07:42:41;98513.00;;;8.92
82400;BMP280;72039;48.812;8.198;2024-02-26T07:45:09;98516.47;;;8.93
82400;BMP280;72039;48.812;8.198;2024-02-26T07:47:37;98507.47;;;8.92
82400;BMP280;72039;48.812;8.198;2024-02-26T07:50:07;98518.53;;;8.92
82400;BMP280;72039;48.812;8.198;2024-02-26T07:52:32;98513.00;;;8.92
82400;BMP280;72039;48.812;8.198;2024-02-26T07:54:58;98523.34;;;8.92
82400;BMP280;72039;48.812;8.198;2024-02-26T07:57:24;98529.59;;;8.92
82400;BMP280;72039;48.812;8.198;2024-02-26T07:59:50;98526.81;;;8.92
82400;BMP280;72039;48.812;8.198;2024-02-26T08:02:16;98527.53;;;8.93
82400;BMP280;72039;48.812;8.198;2024-02-26T08:04:41;98526.25;;;8.96
82400;BMP280;72039;48.812;8.198;2024-02-26T08:10:28;98524.97;;;9.01
82400;BMP280;72039;48.812;8.198;2024-02-26T08:12:54;98530.75;;;9.09
82400;BMP280;72039;48.812;8.198;2024-02-26T08:15:19;98536.50;;;9.17
82400;BMP280;72039;48.812;8.198;2024-02-26T08:17:45;98526.34;;;9.26
82400;BMP280;72039;48.812;8.198;2024-02-26T08:20:12;98521.00;;;9.34
82400;BMP280;72039;48.812;8.198;2024-02-26T08:22:38;98527.38;;;9.41
82400;BMP280;72039;48.812;8.198;2024-02-26T08:25:07;98532.53;;;9.53
82400;BMP280;72039;48.812;8.198;2024-02-26T08:27:43;98536.91;;;9.62
82400;BMP280;72039;48.812;8.198;2024-02-26T08:30:19;98535.69;;;9.71
82400;BMP280;72039;48.812;8.198;2024-02-26T08:32:47;98538.03;;;9.81
82400;BMP280;72039;48.812;8.198;2024-02-26T08:35:13;98538.47;;;10.31
82400;BMP280;72039;48.812;8.198;2024-02-26T08:37:39;98535.56;;;10.57
82400;BMP280;72039;48.812;8.198;2024-02-26T08:40:05;98534.28;;;10.62
82400;BMP280;72039;48.812;8.198;2024-02-26T08:42:38;98542.63;;;10.64
82400;BMP280;72039;48.812;8.198;2024-02-26T08:45:05;98552.97;;;10.62
82400;BMP280;72039;48.812;8.198;2024-02-26T08:47:33;98554.38;;;10.63
82400;BMP280;72039;48.812;8.198;2024-02-26T08:49:58;98564.06;;;10.60
82400;BMP280;72039;48.812;8.198;2024-02-26T08:52:25;98556.47;;;10.62
82400;BMP280;72039;48.812;8.198;2024-02-26T08:54:52;98554.31;;;10.59
82400;BMP280;72039;48.812;8.198;2024-02-26T08:57:18;98552.22;;;10.57
82400;BMP280;72039;48.812;8.198;2024-02-26T08:59:43;98556.22;;;10.50
82400;BMP280;72039;48.812;8.198;2024-02-26T09:02:08;98556.22;;;10.50
82400;BMP280;72039;48.812;8.198;2024-02-26T09:04:38;98554.06;;;10.47
82400;BMP280;72039;48.812;8.198;2024-02-26T09:07:06;98564.44;;;10.46
82400;BMP280;72039;48.812;8.198;2024-02-26T09:09:31;98559.00;;;10.50
82400;BMP280;72039;48.812;8.198;2024-02-26T09:11:56;98558.34;;;10.54
82400;BMP280;72039;48.812;8.198;2024-02-26T09:14:22;98565.34;;;10.57
82400;BMP280;72039;48.812;8.198;2024-02-26T09:16:47;98570.28;;;10.60
82400;BMP280;72039;48.812;8.198;2024-02-26T09:19:19;98561.94;;;10.60
82400;BMP280;72039;48.812;8.198;2024-02-26T09:21:44;98568.16;;;10.59
82400;BMP280;72039;48.812;8.198;2024-02-26T09:24:11;98567.47;;;10.58
82400;BMP280;72039;48.812;8.198;2024-02-26T09:26:39;98575.78;;;10.58
82400;BMP280;72039;48.812;8.198;2024-02-26T09:29:07;98577.13;;;10.55
82400;BMP280;72039;48.812;8.198;2024-02-26T09:31:33;98577.13;;;10.55
82400;BMP280;72039;48.812;8.198;2024-02-26T09:33:59;98576.41;;;10.55
82400;BMP280;72039;48.812;8.198;2024-02-26T09:36:26;98581.25;;;10.54
82400;BMP280;72039;48.812;8.198;2024-02-26T09:38:51;98581.97;;;10.55
82400;BMP280;72039;48.812;8.198;2024-02-26T09:41:17;98587.59;;;10.59
82400;BMP280;72039;48.812;8.198;2024-02-26T09:43:44;98585.66;;;10.66
82400;BMP280;72039;48.812;8.198;2024-02-26T09:46:17;98584.34;;;10.71
82400;BMP280;72039;48.812;8.198;2024-02-26T09:48:47;98588.66;;;10.76
82400;BMP280;72039;48.812;8.198;2024-02-26T09:51:16;98585.22;;;10.79
82400;BMP280;72039;48.812;8.198;2024-02-26T09:53:46;98589.56;;;10.88
82400;BMP280;72039;48.812;8.198;2024-02-26T09:56:12;98572.75;;;11.15
82400;BMP280;72039;48.812;8.198;2024-02-26T09:58:39;98578.81;;;11.45
82400;BMP280;72039;48.812;8.198;2024-02-26T10:01:10;98570.47;;;11.88
82400;BMP280;72039;48.812;8.198;2024-02-26T10:03:39;98560.69;;;12.33
82400;BMP280;72039;48.812;8.198;2024-02-26T10:06:07;98570.16;;;12.68
82400;BMP280;72039;48.812;8.198;2024-02-26T10:08:34;98569.59;;;12.80
82400;BMP280;72039;48.812;8.198;2024-02-26T10:11:00;98566.84;;;12.82
82400;BMP280;72039;48.812;8.198;2024-02-26T10:13:27;98566.81;;;12.80
82400;BMP280;72039;48.812;8.198;2024-02-26T10:15:54;98585.53;;;12.75
82400;BMP280;72039;48.812;8.198;2024-02-26T10:18:23;98589.00;;;12.74
82400;BMP280;72039;48.812;8.198;2024-02-26T10:20:59;98591.34;;;12.96
82400;BMP280;72039;48.812;8.198;2024-02-26T10:23:26;98589.69;;;13.41
82400;BMP280;72039;48.812;8.198;2024-02-26T10:25:55;98592.72;;;13.72
82400;BMP280;72039;48.812;8.198;2024-02-26T10:28:21;98592.03;;;13.69
82400;BMP280;72039;48.812;8.198;2024-02-26T10:30:48;98596.22;;;13.72
82400;BMP280;72039;48.812;8.198;2024-02-26T10:33:14;98608.06;;;13.71
82400;BMP280;72039;48.812;8.198;2024-02-26T10:35:45;98612.22;;;13.64
82400;BMP280;72039;48.812;8.198;2024-02-26T10:38:12;98608.66;;;13.57
82400;BMP280;72039;48.812;8.198;2024-02-26T10:40:42;98613.47;;;13.53
82400;BMP280;72039;48.812;8.198;2024-02-26T10:43:07;98611.44;;;13.57
82400;BMP280;72039;48.812;8.198;2024-02-26T10:45:33;98601.00;;;13.60
82400;BMP280;72039;48.812;8.198;2024-02-26T10:48:00;98617.13;;;13.69
82400;BMP280;72039;48.812;8.198;2024-02-26T10:50:28;98613.78;;;13.89
82400;BMP280;72039;48.812;8.198;2024-02-26T10:56:15;98609.28;;;14.53
82400;BMP280;72039;48.812;8.198;2024-02-26T11:02:02;98623.84;;;14.39
82400;BMP280;72039;48.812;8.198;2024-02-26T11:07:50;98628.00;;;14.32
82400;BMP280;72039;48.812;8.198;2024-02-26T11:13:42;98663.25;;;13.87
82400;BMP280;72039;48.812;8.198;2024-02-26T11:19:32;98664.41;;;13.57
82400;BMP280;72039;48.812;8.198;2024-02-26T11:25:24;98652.38;;;13.40
82400;BMP280;72039;48.812;8.198;2024-02-26T11:34:40;98635.66;;;13.40
82400;BMP280;72039;48.812;8.198;2024-02-26T11:40:31;98650.19;;;13.33
82400;BMP280;72039;48.812;8.198;2024-02-26T12:06:39;98643.03;;;13.88
82400;BMP280;72039;48.812;8.198;2024-02-26T12:13:13;98635.81;;;14.64
82400;BMP280;72039;48.812;8.198;2024-02-26T12:19:00;98645.72;;;14.98
82400;BMP280;72039;48.812;8.198;2024-02-26T12:27:54;98650.50;;;14.65
82400;BMP280;72039;48.812;8.198;2024-02-26T12:33:41;98647.75;;;14.87
82400;BMP280;72039;48.812;8.198;2024-02-26T12:39:31;98654.16;;;15.29
82400;BMP280;72039;48.812;8.198;2024-02-26T12:45:25;98664.69;;;15.36
82400;BMP280;72039;48.812;8.198;2024-02-26T12:54:55;98660.44;;;16.37
82400;BMP280;72039;48.812;8.198;2024-02-26T13:00:42;98661.03;;;16.60
82400;BMP280;72039;48.812;8.198;2024-02-26T13:06:31;98668.66;;;16.78
82400;BMP280;72039;48.812;8.198;2024-02-26T13:12:21;98665.06;;;17.04
82400;BMP280;72039;48.812;8.198;2024-02-26T13:18:15;98681.16;;;17.04
82400;BMP280;72039;48.812;8.198;2024-02-26T13:24:03;98663.56;;;18.02
82400;BMP280;72039;48.812;8.198;2024-02-26T13:30:12;98665.69;;;20.69
82400;BMP280;72039;48.812;8.198;2024-02-26T13:35:59;98687.00;;;18.43
82400;BMP280;72039;48.812;8.198;2024-02-26T13:41:47;98695.13;;;17.14
82400;BMP280;72039;48.812;8.198;2024-02-26T13:47:36;98695.22;;;16.89
82400;BMP280;72039;48.812;8.198;2024-02-26T14:03:17;98668.03;;;21.79
82400;BMP280;72039;48.812;8.198;2024-02-26T14:09:09;98670.75;;;22.81
82400;BMP280;72039;48.812;8.198;2024-02-26T14:14:59;98685.66;;;21.79
82400;BMP280;72039;48.812;8.198;2024-02-26T14:20:49;98697.16;;;20.12
82400;BMP280;72039;48.812;8.198;2024-02-26T14:30:16;98697.31;;;17.93
82400;BMP280;72039;48.812;8.198;2024-02-26T14:36:07;98700.81;;;16.96
82400;BMP280;72039;48.812;8.198;2024-02-26T14:41:54;98710.81;;;16.25
82400;BMP280;72039;48.812;8.198;2024-02-26T14:47:42;98705.94;;;15.89
82400;BMP280;72039;48.812;8.198;2024-02-26T14:57:27;98717.81;;;15.57
82400;BMP280;72039;48.812;8.198;2024-02-26T15:03:14;98712.91;;;15.53
82400;BMP280;72039;48.812;8.198;2024-02-26T15:09:02;98710.06;;;15.45
82400;BMP280;72039;48.812;8.198;2024-02-26T15:14:50;98721.22;;;15.27
82400;BMP280;72039;48.812;8.198;2024-02-26T15:20:37;98712.78;;;15.02
82400;BMP280;72039;48.812;8.198;2024-02-26T15:26:25;98717.53;;;14.73
82400;BMP280;72039;48.812;8.198;2024-02-26T15:32:15;98714.63;;;14.55
82400;BMP280;72039;48.812;8.198;2024-02-26T15:38:04;98722.22;;;14.38
82400;BMP280;72039;48.812;8.198;2024-02-26T15:43:51;98727.69;;;14.28
82400;BMP280;72039;48.812;8.198;2024-02-26T15:49:39;98725.53;;;14.18
82400;BMP280;72039;48.812;8.198;2024-02-26T15:58:51;98735.22;;;14.09
82400;BMP280;72039;48.812;8.198;2024-02-26T16:04:39;98749.81;;;14.03
82400;BMP280;72039;48.812;8.198;2024-02-26T16:10:28;98753.25;;;13.97
82400;BMP280;72039;48.812;8.198;2024-02-26T16:16:19;98772.00;;;13.91
82400;BMP280;72039;48.812;8.198;2024-02-26T16:22:07;98774.69;;;13.81
82400;BMP280;72039;48.812;8.198;2024-02-26T16:27:54;98783.66;;;13.71
82400;BMP280;72039;48.812;8.198;2024-02-26T16:33:45;98796.81;;;13.64
82400;BMP280;72039;48.812;8.198;2024-02-26T16:46:16;98802.88;;;13.46
82400;BMP280;72039;48.812;8.198;2024-02-26T16:52:03;98818.13;;;13.39
82400;BMP280;72039;48.812;8.198;2024-02-26T17:01:11;98829.72;;;13.21
82400;BMP280;72039;48.812;8.198;2024-02-26T17:06:57;98833.09;;;13.14
82400;BMP280;72039;48.812;8.198;2024-02-26T17:12:47;98845.53;;;13.05
82400;BMP280;72039;48.812;8.198;2024-02-26T17:18:34;98857.25;;;12.99
82400;BMP280;72039;48.812;8.198;2024-02-26T17:24:21;98860.66;;;12.93
82400;BMP280;72039;48.812;8.198;2024-02-26T17:30:10;98875.19;;;12.88
82400;BMP280;72039;48.812;8.198;2024-02-26T17:35:59;98893.19;;;12.83
82400;BMP280;72039;48.812;8.198;2024-02-26T17:41:46;98903.59;;;12.80
82400;BMP280;72039;48.812;8.198;2024-02-26T17:47:35;98909.09;;;12.76
82400;BMP280;72039;48.812;8.198;2024-02-26T17:53:25;98927.13;;;12.73
82400;BMP280;72039;48.812;8.198;2024-02-26T18:02:35;98935.28;;;12.61
82400;BMP280;72039;48.812;8.198;2024-02-26T18:08:21;98943.53;;;12.57
82400;BMP280;72039;48.812;8.198;2024-02-26T18:14:13;98950.38;;;12.49
82400;BMP280;72039;48.812;8.198;2024-02-26T18:20:02;98955.13;;;12.43
82400;BMP280;72039;48.812;8.198;2024-02-26T18:25:56;98956.31;;;12.34
82400;BMP280;72039;48.812;8.198;2024-02-26T18:31:44;98968.75;;;12.28
82400;BMP280;72039;48.812;8.198;2024-02-26T18:37:33;98981.84;;;12.24
82400;BMP280;72039;48.812;8.198;2024-02-26T18:40:00;98985.28;;;12.22
82400;BMP280;72039;48.812;8.198;2024-02-26T18:42:28;98984.59;;;12.22
82400;BMP280;72039;48.812;8.198;2024-02-26T18:44:56;98982.47;;;12.20
82400;BMP280;72039;48.812;8.198;2024-02-26T18:47:23;98988.78;;;12.21
82400;BMP280;72039;48.812;8.198;2024-02-26T18:49:51;98990.81;;;12.20
82400;BMP280;72039;48.812;8.198;2024-02-26T18:52:16;99003.31;;;12.19
82400;BMP280;72039;48.812;8.198;2024-02-26T18:54:42;98997.72;;;12.17
82400;BMP280;72039;48.812;8.198;2024-02-26T18:57:10;99006.69;;;12.16
82400;BMP280;72039;48.812;8.198;2024-02-26T18:59:38;99003.22;;;12.15
82400;BMP280;72039;48.812;8.198;2024-02-26T19:02:04;99014.34;;;12.15
82400;BMP280;72039;48.812;8.198;2024-02-26T19:04:30;99016.41;;;12.15
82400;BMP280;72039;48.812;8.198;2024-02-26T19:07:17;99025.53;;;12.17
82400;BMP280;72039;48.812;8.198;2024-02-26T19:09:42;99024.81;;;12.17
82400;BMP280;72039;48.812;8.198;2024-02-26T19:12:10;99031.72;;;12.16
82400;BMP280;72039;48.812;8.198;2024-02-26T19:14:38;99036.63;;;12.17
82400;BMP280;72039;48.812;8.198;2024-02-26T19:17:04;99040.06;;;12.16
82400;BMP280;72039;48.812;8.198;2024-02-26T19:19:31;99041.41;;;12.13